sensor_id;sensor_type;location;lat;lon;timestamp;temperature;humidity
5334;DHT22;2689;50.954;7.116;2023-05-20T19:48:37;15.90;96.80
5334;DHT22;2689;50.954;7.116;2023-05-20T19:51:04;15.70;97.40
5334;DHT22;2689;50.954;7.116;2023-05-20T19:53:31;15.70;97.90
5334;DHT22;2689;50.954;7.116;2023-05-20T19:55:58;15.70;98.40
5334;DHT22;2689;50.954;7.116;2023-05-20T19:58:24;15.70;98.50
5334;DHT22;2689;50.954;7.116;2023-05-20T20:00:51;15.70;98.50
5334;DHT22;2689;50.954;7.116;2023-05-20T20:03:18;15.70;98.50
5334;DHT22;2689;50.954;7.116;2023-05-20T20:05:46;15.70;98.50
5334;DHT22;2689;50.954;7.116;2023-05-20T20:08:13;15.70;98.70
5334;DHT22;2689;50.954;7.116;2023-05-20T20:10:39;15.70;98.90
5334;DHT22;2689;50.954;7.116;2023-05-20T20:13:06;15.60;99.00
5334;DHT22;2689;50.954;7.116;2023-05-20T20:15:33;15.60;99.20
5334;DHT22;2689;50.954;7.116;2023-05-20T20:18:01;15.60;99.50
5334;DHT22;2689;50.954;7.116;2023-05-20T20:20:28;15.60;99.70
5334;DHT22;2689;50.954;7.116;2023-05-20T20:23:03;15.60;99.70
5334;DHT22;2689;50.954;7.116;2023-05-20T20:25:30;15.60;99.90
5334;DHT22;2689;50.954;7.116;2023-05-20T20:27:58;15.60;99.90
5334;DHT22;2689;50.954;7.116;2023-05-20T20:30:25;15.60;99.90
5334;DHT22;2689;50.954;7.116;2023-05-20T20:32:52;15.60;99.90
5334;DHT22;2689;50.954;7.116;2023-05-20T20:35:18;15.60;99.90
5334;DHT22;2689;50.954;7.116;2023-05-20T20:37:47;15.60;99.90
5334;DHT22;2689;50.954;7.116;2023-05-20T20:40:15;15.60;99.90
5334;DHT22;2689;50.954;7.116;2023-05-20T20:42:42;15.60;99.90
5334;DHT22;2689;50.954;7.116;2023-05-20T20:45:13;15.60;99.90
5334;DHT22;2689;50.954;7.116;2023-05-20T20:47:40;15.70;99.90
5334;DHT22;2689;50.954;7.116;2023-05-20T20:50:09;15.70;99.90
5334;DHT22;2689;50.954;7.116;2023-05-20T20:52:40;15.60;99.90
5334;DHT22;2689;50.954;7.116;2023-05-20T20:55:08;15.60;99.90
5334;DHT22;2689;50.954;7.116;2023-05-20T20:57:36;15.60;99.90
5334;DHT22;2689;50.954;7.116;2023-05-20T21:00:05;15.50;99.90
5334;DHT22;2689;50.954;7.116;2023-05-20T21:02:40;15.50;99.90
5334;DHT22;2689;50.954;7.116;2023-05-20T21:05:07;15.40;99.90
5334;DHT22;2689;50.954;7.116;2023-05-20T21:07:34;15.40;99.90
5334;DHT22;2689;50.954;7.116;2023-05-20T21:10:04;15.30;99.90
5334;DHT22;2689;50.954;7.116;2023-05-20T21:12:31;15.30;99.90
5334;DHT22;2689;50.954;7.116;2023-05-20T21:14:59;15.30;99.90
5334;DHT22;2689;50.954;7.116;2023-05-20T21:17:26;15.20;99.90
5334;DHT22;2689;50.954;7.116;2023-05-20T21:19:53;15.20;99.90
5334;DHT22;2689;50.954;7.116;2023-05-20T21:22:20;15.20;99.90
5334;DHT22;2689;50.954;7.116;2023-05-20T21:24:47;15.10;99.90
5334;DHT22;2689;50.954;7.116;2023-05-20T21:27:14;15.10;99.90
5334;DHT22;2689;50.954;7.116;2023-05-20T21:29:41;15.10;99.90
5334;DHT22;2689;50.954;7.116;2023-05-20T21:32:09;15.10;99.90
5334;DHT22;2689;50.954;7.116;2023-05-20T21:34:35;15.00;99.90
5334;DHT22;2689;50.954;7.116;2023-05-20T21:37:02;15.00;99.90
5334;DHT22;2689;50.954;7.116;2023-05-20T21:39:29;15.00;99.90
5334;DHT22;2689;50.954;7.116;2023-05-20T21:41:56;15.00;99.90
5334;DHT22;2689;50.954;7.116;2023-05-20T21:44:22;14.90;99.90
5334;DHT22;2689;50.954;7.116;2023-05-20T21:46:49;14.90;99.90
5334;DHT22;2689;50.954;7.116;2023-05-20T21:49:17;14.80;99.90
5334;DHT22;2689;50.954;7.116;2023-05-20T21:51:44;14.80;99.90
5334;DHT22;2689;50.954;7.116;2023-05-20T21:54:11;14.80;99.90
5334;DHT22;2689;50.954;7.116;2023-05-20T21:56:37;14.80;99.90
5334;DHT22;2689;50.954;7.116;2023-05-20T21:59:04;14.80;99.90
5334;DHT22;2689;50.954;7.116;2023-05-20T22:01:31;14.70;99.90
5334;DHT22;2689;50.954;7.116;2023-05-20T22:03:58;14.70;99.90
5334;DHT22;2689;50.954;7.116;2023-05-20T22:06:26;14.70;99.90
5334;DHT22;2689;50.954;7.116;2023-05-20T22:08:53;14.70;99.90
5334;DHT22;2689;50.954;7.116;2023-05-20T22:11:20;14.70;99.90
5334;DHT22;2689;50.954;7.116;2023-05-20T22:13:48;14.70;99.90
5334;DHT22;2689;50.954;7.116;2023-05-20T22:16:15;14.60;99.90
5334;DHT22;2689;50.954;7.116;2023-05-20T22:18:42;14.60;99.90
5334;DHT22;2689;50.954;7.116;2023-05-20T22:21:09;14.60;99.90
5334;DHT22;2689;50.954;7.116;2023-05-20T22:23:37;14.60;99.90
5334;DHT22;2689;50.954;7.116;2023-05-20T22:26:03;14.60;99.90
5334;DHT22;2689;50.954;7.116;2023-05-20T22:28:30;14.60;99.90
5334;DHT22;2689;50.954;7.116;2023-05-20T22:30:57;14.50;99.90
5334;DHT22;2689;50.954;7.116;2023-05-20T22:33:24;14.50;99.90
5334;DHT22;2689;50.954;7.116;2023-05-20T22:35:51;14.50;99.90
5334;DHT22;2689;50.954;7.116;2023-05-20T22:38:18;14.50;99.90
5334;DHT22;2689;50.954;7.116;2023-05-20T22:40:47;14.50;99.90
5334;DHT22;2689;50.954;7.116;2023-05-20T22:43:13;14.40;99.90
5334;DHT22;2689;50.954;7.116;2023-05-20T22:45:40;14.40;99.90
5334;DHT22;2689;50.954;7.116;2023-05-20T22:48:07;14.40;99.90
5334;DHT22;2689;50.954;7.116;2023-05-20T22:50:34;14.40;99.90
5334;DHT22;2689;50.954;7.116;2023-05-20T22:53:01;14.40;99.90
5334;DHT22;2689;50.954;7.116;2023-05-20T22:55:28;14.40;99.90
5334;DHT22;2689;50.954;7.116;2023-05-20T22:57:56;14.40;99.90
5334;DHT22;2689;50.954;7.116;2023-05-20T23:00:23;14.40;99.90
5334;DHT22;2689;50.954;7.116;2023-05-20T23:02:49;14.40;99.90
5334;DHT22;2689;50.954;7.116;2023-05-20T23:05:16;14.40;99.90
5334;DHT22;2689;50.954;7.116;2023-05-20T23:07:43;14.40;99.90
5334;DHT22;2689;50.954;7.116;2023-05-20T23:10:10;14.40;99.90
5334;DHT22;2689;50.954;7.116;2023-05-20T23:12:37;14.40;99.90
5334;DHT22;2689;50.954;7.116;2023-05-20T23:15:06;14.40;99.90
5334;DHT22;2689;50.954;7.116;2023-05-20T23:17:33;14.40;99.90
5334;DHT22;2689;50.954;7.116;2023-05-20T23:20:00;14.40;99.90
5334;DHT22;2689;50.954;7.116;2023-05-20T23:22:29;14.40;99.90
5334;DHT22;2689;50.954;7.116;2023-05-20T23:24:57;14.40;99.90
5334;DHT22;2689;50.954;7.116;2023-05-20T23:27:23;14.30;99.90
5334;DHT22;2689;50.954;7.116;2023-05-20T23:29:50;14.30;99.90
5334;DHT22;2689;50.954;7.116;2023-05-20T23:32:18;14.30;99.90
5334;DHT22;2689;50.954;7.116;2023-05-20T23:34:45;14.40;99.90
5334;DHT22;2689;50.954;7.116;2023-05-20T23:37:12;14.30;99.90
5334;DHT22;2689;50.954;7.116;2023-05-20T23:39:39;14.40;99.90
5334;DHT22;2689;50.954;7.116;2023-05-20T23:42:05;14.30;99.90
5334;DHT22;2689;50.954;7.116;2023-05-20T23:44:32;14.30;99.90
5334;DHT22;2689;50.954;7.116;2023-05-20T23:46:59;14.30;99.90
5334;DHT22;2689;50.954;7.116;2023-05-20T23:49:29;14.30;99.90
5334;DHT22;2689;50.954;7.116;2023-05-20T23:51:56;14.20;99.90
5334;DHT22;2689;50.954;7.116;2023-05-20T23:54:23;14.20;99.90
5334;DHT22;2689;50.954;7.116;2023-05-20T23:56:49;14.20;99.90
5334;DHT22;2689;50.954;7.116;2023-05-20T23:59:17;14.20;99.90
